EGPH/EDI METAR and TAF weather

Enter ICAO airport designator
Station Type Date Time Source
EGPH METAR 2022/11/30 23:50 UTC NOAA

EGPH 302350Z VRB01KT 9999 OVC006 03/03 Q1026


Station Type Date Time Source
EGPH Decoded METAR 2022/11/30 23:50 UTC NOAA

Edinburgh Airport, United Kingdom (EGPH) 55-57N 003-21W 0M
Nov 30, 2022 - 06:50 PM EST / 2022.11.30 2350 UTC
Wind: Variable at 1 MPH (1 KT):0
Visibility: greater than 7 mile(s):0
Sky conditions: overcast
Temperature: 37 F (3 C)
Dew Point: 37 F (3 C)
Relative Humidity: 100%
Pressure (altimeter): 30.30 in. Hg (1026 hPa)
ob: EGPH 302350Z VRB01KT 9999 OVC006 03/03 Q1026
cycle: 0

Station Type Date Time Source
EGPH TAF 2022/11/30 19:14 UTC NOAA

TAF COR EGPH 301908Z 3019/0118 VRB03KT 0300 FG OVC001 PROB30
TEMPO 3019/0103 6000 FEW001
BECMG 0100/0103 3000 -DZ BR SCT003
TEMPO 0103/0118 1400 DZRA BKN003 PROB30
TEMPO 0103/0115 0300 FG OVC001

Example: see airport list